Amunt
Inicio > meteoXarxa
Fes-te'n soci

METEOXARXA

Atzeneta del Maestrat
Ubicació
Comarca l′Alcalatén
Altitud (msnm) 402
Posició geogràfica 40° 12' 58.77" N, 00° 10' 23.64" W
Model Davis Vantage Pro
Presa de dades
Font de les dades Universitat Jaume I de Castelló
Estadístiques. Resum
Data Temperatura (ºC) Humitat (%) Pressió (hPa) Vent (km/h) Precipit. (mm)
Mínima Mitjana Màxima Mínima Mitjana Màxima Mínima Mitjana Màxima Predom. Mitjana Ràfega màxima Total Dies de pluja
Mínima Mitjana Màxima Mínima Mitjana Màxima
Últimes dades diàries
16-01-2017 6,9     10,0     12,8 WNW 43,6 112,7 0,0  
15-01-2017 4,2     7,3     9,4 WNW 25,9 91,7 0,0  
14-01-2017 3,4     5,4     7,5 WNW 21,1 77,2 0,0  
13-01-2017 2,9     9,6     13,4 NE 6,0 38,6 0,0  
12-01-2017 8,6     12,2     16,9 WNW 4,5 20,9 0,0  
11-01-2017 6,9     10,4     13,9 NE 9,5 48,3 0,0  
10-01-2017 5,1     10,2     12,8 WNW 21,7 119,1 0,0  
09-01-2017 4,9     7,7     11,6 WNW 13,4 43,5 0,0  
08-01-2017 3,6     8,8     13,7 WNW 11,4 37,0 0,0  
07-01-2017 2,8     6,4     11,1 WNW 5,8 20,9 0,0  
06-01-2017 3,1     6,8     10,9 WNW 7,6 20,9 0,0  
05-01-2017 5,2     10,4     15,4 WNW 11,7 49,9 0,0  
04-01-2017 9,4     12,1     15,8 WNW 11,4 59,5 0,0  
03-01-2017 6,8     11,1     14,2 WNW 5,3 27,4 0,0  
02-01-2017 -1,4     4,9     9,8 WNW 2,6 16,1 0,0  
01-01-2017 -2,1     4,0     12,9 SW 1,3 20,9 0,3  
31-12-2016 1,5     6,7     11,6 WNW 6,1 24,1 0,0  
30-12-2016 3,5     6,8     10,6 WNW 5,3 19,3 0,0  
29-12-2016 5,3     9,6     17,0 WNW 7,4 22,5 0,0  
28-12-2016 5,6     8,8     14,0 WNW 9,0 25,7 0,0  
27-12-2016 7,4     10,1     14,1 WNW 4,7 12,9 0,0  
26-12-2016 9,7     12,1     16,1 WNW 5,8 20,9 0,0  
25-12-2016 8,2     11,8     16,7 WNW 8,5 29,0 0,0  
24-12-2016 9,0     11,2     14,7 WNW 13,5 41,8 0,0  
23-12-2016 5,7     11,3     15,9 WNW 8,2 27,4 0,0  
22-12-2016 7,1     9,8     15,1 WNW 11,1 38,6 0,0  
21-12-2016 6,6     9,2     13,0 WNW 22,2 53,1 0,0  
20-12-2016 6,7     8,9     14,7 WNW 22,2 59,5 0,0  
19-12-2016 4,9     6,3     7,6 WNW 24,3 51,5  
18-12-2016 5,9     7,2     8,1 WNW 13,7 46,7 0,0  
17-12-2016 7,0     9,3     11,2 WNW 9,3 61,2  
16-12-2016 8,3     9,4     11,9 WNW 5,8 43,5 0,0  
Dades del mes en curs (actualitzades fins l'últim dia disponible)
01/2017 -2,1 4,4 9,4 8,6 7,5 12,6 16,9   12,7 119,1 0,3  
Últimes dades mensuals
05/2016 6,2 11,5 15,8 15,3 13,6 19,9 26,6 11,9 98,2 55,9 8
04/2016 4,9 8,9 13,0 12,6 12,3 17,2 22,7 12,3 91,7 33,9 10
03/2016 2,9 6,7 11,2 10,2 8,7 14,5 21,0 15,5 117,5 49,9 11
02/2016 -0,6 6,5 15,0 10,2 7,0 14,7 20,9 17,8 93,3 6,4 5
01/2016 3,3 7,0 12,3 10,5 7,3 14,2 18,8 12,3 90,1 3,4 4
12/2015 5,5 8,0 12,5 11,1 11,9 14,9 18,5 5,3 33,8 0,6 2
11/2015 2,9 10,2 14,2 13,6 8,7 17,4 22,6 12,5 95,0 133,4 3
10/2015 6,6 12,4 20,3 15,8 15,8 19,6 26,3 9,1 59,5 26,8 8
09/2015 11,6 15,3 18,9 18,6 17,9 23,3 27,9 9,2 62,8 71,5 12
08/2015 15,3 18,4 23,1 22,4 19,9 26,8 31,8 8,9 74,0 63,7 7
07/2015 16,1 20,6 23,8 24,9 23,8 30,0 36,6 8,2 96,6 45,5 5
06/2015 11,6 16,2 22,9 21,0 21,9 26,6 31,6 9,5 83,7 63,0 7
05/2015 8,9 13,3 18,6 18,3 18,6 23,8 36,8 12,5 98,2 10,1 3
Dades de l'any en curs (actualitzades fins l'últim dia disponible)
2017 -2,1 4,4 9,4 8,6 7,5 12,6 16,9   12,7 119,1 0,3  
Últimes dades anuals
2015 -0,6 11,8 16,1 15,6 18,5 20,1 36,8 11,5 140,0 754,5 54